Time;durP1;ratioP1;P1;durP2;ratioP2;P2;SDS_P1;SDS_P2;PMS_P1;PMS_P2;Temp;Humidity;BMP_temperature;BMP_pressure;BME280_temperature;BME280_humidity;BME280_pressure;Samples;Min_cycle;Max_cycle;Signal;HPM_P1;HPM_P2
2022/12/19 00:02:09;;;;;;;106.07;39.67;;;;;;;-2.21;70.48;102242.53;4488499;31;33693;-72
2022/12/19 00:04:36;;;;;;;130.23;47.33;;;;;;;-1.94;68.90;102236.78;4483800;32;34551;-72
2022/12/19 00:07:04;;;;;;;78.82;33.17;;;;;;;-1.93;68.62;102252.94;4483960;32;33345;-72
2022/12/19 00:09:31;;;;;;;69.60;28.77;;;;;;;-2.72;70.15;102255.09;4486514;31;33942;-72
2022/12/19 00:12:01;;;;;;;80.65;34.92;;;;;;;-3.23;72.34;102262.44;4493915;31;33568;-72
2022/12/19 00:14:28;;;;;;;78.78;36.65;;;;;;;-3.39;72.61;102262.84;4492397;31;34786;-72
2022/12/19 00:16:56;;;;;;;90.90;37.60;;;;;;;-3.13;72.11;102262.09;4478968;31;33615;-72
2022/12/19 00:19:23;;;;;;;93.30;36.65;;;;;;;-3.44;72.72;102263.84;4490724;31;33737;-72
2022/12/19 00:21:51;;;;;;;77.80;33.00;;;;;;;-3.46;72.83;102265.22;4486951;31;34578;-72
2022/12/19 00:24:18;;;;;;;79.28;32.97;;;;;;;-3.28;72.18;102266.88;4488212;31;33685;-72
2022/12/19 00:26:48;;;;;;;75.78;33.17;;;;;;;-3.00;71.25;102266.50;4483575;32;33511;-72
2022/12/19 00:29:16;;;;;;;85.10;35.25;;;;;;;-2.58;69.67;102265.50;4489161;31;33370;-72
2022/12/19 00:31:43;;;;;;;79.30;33.42;;;;;;;-3.09;71.38;102254.19;4485014;31;34033;-72
2022/12/19 00:34:13;;;;;;;79.12;34.38;;;;;;;-2.88;70.85;102257.13;4488352;31;33802;-72
2022/12/19 00:36:40;;;;;;;76.87;32.13;;;;;;;-2.80;71.06;102265.78;4483459;31;33623;-72
2022/12/19 00:39:09;;;;;;;82.62;35.85;;;;;;;-2.73;70.29;102258.34;4487647;31;33629;-72
2022/12/19 00:41:38;;;;;;;92.60;36.83;;;;;;;-2.43;69.67;102268.31;4482394;32;33809;-72
2022/12/19 00:44:11;;;;;;;92.47;38.58;;;;;;;-2.45;69.29;102262.09;4488601;31;34593;-72
2022/12/19 00:46:41;;;;;;;76.75;32.88;;;;;;;-2.01;67.65;102254.44;4482984;32;33552;-72
2022/12/19 00:49:15;;;;;;;83.43;33.78;;;;;;;-2.11;67.77;102257.37;4485933;31;34699;-72
2022/12/19 00:51:42;;;;;;;69.72;33.28;;;;;;;-2.31;68.10;102252.19;4474890;32;33795;-72
2022/12/19 00:54:10;;;;;;;74.87;38.72;;;;;;;-2.23;67.69;102256.66;4487379;31;34557;-72
2022/12/19 00:56:38;;;;;;;77.43;38.30;;;;;;;-2.49;68.40;102255.69;4486244;31;33223;-72
2022/12/19 00:59:06;;;;;;;67.68;34.10;;;;;;;-2.23;67.77;102256.66;4486387;31;33857;-72
2022/12/19 01:01:37;;;;;;;82.12;35.15;;;;;;;-2.12;67.58;102254.66;4478249;31;34659;-72
2022/12/19 01:04:07;;;;;;;78.45;34.08;;;;;;;-2.19;67.57;102251.28;4487304;31;33943;-72
2022/12/19 01:06:54;;;;;;;68.18;31.10;;;;;;;-2.14;67.22;102249.38;4484775;32;34461;-72
2022/12/19 01:09:32;;;;;;;61.70;30.42;;;;;;;-2.20;67.17;102235.88;4485180;32;33965;-72
2022/12/19 01:14:53;;;;;;;68.22;33.13;;;;;;;-2.32;67.19;102239.28;4493973;31;34109;-72
2022/12/19 01:17:24;;;;;;;64.47;31.08;;;;;;;-2.05;66.54;102239.53;4484355;32;34234;-72
2022/12/19 01:19:52;;;;;;;71.78;32.72;;;;;;;-1.96;66.10;102233.13;4487083;31;34067;-72
2022/12/19 01:22:19;;;;;;;68.82;29.40;;;;;;;-1.86;65.70;102226.00;4480654;31;33893;-72
2022/12/19 01:24:47;;;;;;;65.75;30.25;;;;;;;-2.22;66.44;102227.09;4490328;31;33940;-72
2022/12/19 01:27:14;;;;;;;63.58;29.00;;;;;;;-2.40;67.03;102213.75;4493689;31;33249;-72
2022/12/19 01:29:42;;;;;;;62.67;29.48;;;;;;;-2.34;66.65;102210.22;4488030;31;33640;-72
2022/12/19 01:32:20;;;;;;;61.55;30.85;;;;;;;-2.25;67.23;102212.38;4489439;31;34662;-72
2022/12/19 01:34:48;;;;;;;63.33;29.48;;;;;;;-2.26;67.32;102210.56;4492943;31;33465;-72
2022/12/19 01:37:16;;;;;;;66.40;29.70;;;;;;;-2.21;67.08;102209.53;4488694;31;33373;-72
2022/12/19 01:39:43;;;;;;;74.07;30.77;;;;;;;-2.18;67.69;102196.34;4484596;32;33840;-72
2022/12/19 01:42:19;;;;;;;78.30;33.05;;;;;;;-2.65;69.81;102201.94;4488984;31;33615;-72
2022/12/19 01:45:03;;;;;;;78.62;32.20;;;;;;;-3.25;74.71;102190.34;4494391;31;34180;-72
2022/12/19 01:47:33;;;;;;;73.50;32.15;;;;;;;-2.10;72.23;102188.12;4492445;31;33383;-72
2022/12/19 01:50:02;;;;;;;88.65;33.00;;;;;;;-1.79;71.01;102192.19;4483754;31;33665;-72
2022/12/19 01:52:29;;;;;;;90.80;34.75;;;;;;;-2.26;74.96;102184.25;4492798;31;34694;-72
2022/12/19 01:54:57;;;;;;;80.75;35.40;;;;;;;-2.10;75.20;102192.31;4491490;31;34054;-72
2022/12/19 01:57:25;;;;;;;85.05;33.60;;;;;;;-1.66;75.60;102199.78;4482880;31;33278;-73
2022/12/19 01:59:56;;;;;;;86.18;33.30;;;;;;;-1.41;74.73;102202.31;4487837;31;34005;-72
2022/12/19 02:02:26;;;;;;;93.75;33.33;;;;;;;-1.31;75.06;102201.88;4483634;32;33879;-72
2022/12/19 02:04:54;;;;;;;88.80;34.63;;;;;;;-1.39;76.46;102208.50;4484576;32;33791;-72
2022/12/19 02:07:23;;;;;;;80.47;32.60;;;;;;;-1.09;76.22;102205.56;4488046;31;32994;-72
2022/12/19 02:09:53;;;;;;;75.57;30.25;;;;;;;-0.82;75.82;102192.91;4483581;31;33741;-72
2022/12/19 02:12:24;;;;;;;70.12;30.40;;;;;;;-0.56;73.78;102202.06;4483773;32;34587;-72
2022/12/19 02:14:54;;;;;;;66.57;27.75;;;;;;;-0.23;71.68;102191.06;4487207;31;34026;-72
2022/12/19 02:17:46;;;;;;;61.63;26.83;;;;;;;-0.15;70.24;102194.56;4483747;32;34303;-72
2022/12/19 02:20:50;;;;;;;63.50;27.52;;;;;;;0.01;69.14;102197.41;4483364;32;33975;-73
2022/12/19 02:23:28;;;;;;;60.88;26.27;;;;;;;-0.10;68.66;102202.78;4482968;32;34015;-73
2022/12/19 02:26:20;;;;;;;64.65;27.02;;;;;;;-0.24;68.63;102199.41;4484656;32;33963;-72
2022/12/19 02:29:07;;;;;;;66.65;27.08;;;;;;;-0.21;68.68;102202.34;4484521;32;33442;-72
2022/12/19 02:32:16;;;;;;;63.42;26.00;;;;;;;-0.05;68.02;102204.28;4483173;31;33258;-72
2022/12/19 02:35:19;;;;;;;66.25;27.42;;;;;;;-0.15;68.22;102199.66;4450799;31;34587;-72
2022/12/19 02:38:29;;;;;;;65.53;26.58;;;;;;;-0.06;67.59;102211.03;4441957;31;33821;-72
2022/12/19 02:41:01;;;;;;;68.57;27.85;;;;;;;0.07;67.34;102208.34;4487597;31;34196;-72
2022/12/19 02:43:35;;;;;;;62.60;26.25;;;;;;;0.14;66.74;102216.03;4485553;31;32809;-72
2022/12/19 02:46:04;;;;;;;63.08;26.62;;;;;;;-0.19;68.11;102217.84;4483742;31;34668;-73
2022/12/19 02:48:33;;;;;;;58.05;26.10;;;;;;;0.15;66.83;102216.94;4467058;32;33259;-72
2022/12/19 02:51:00;;;;;;;59.58;24.80;;;;;;;0.14;66.65;102210.94;4481566;32;33432;-72
2022/12/19 02:53:27;;;;;;;54.63;24.02;;;;;;;0.17;66.45;102211.34;4484309;32;33949;-72
2022/12/19 02:55:58;;;;;;;56.40;25.10;;;;;;;0.20;66.22;102208.25;4481690;32;33774;-72
2022/12/19 02:59:05;;;;;;;57.95;24.30;;;;;;;0.06;66.53;102211.62;4485528;31;33934;-72
2022/12/19 03:02:09;;;;;;;56.37;24.05;;;;;;;-0.10;66.59;102208.78;4457848;32;33394;-72
2022/12/19 03:04:40;;;;;;;56.88;24.83;;;;;;;-0.28;67.13;102207.38;4483131;32;33683;-73
2022/12/19 03:07:27;;;;;;;56.83;25.48;;;;;;;0.06;66.36;102211.62;4485163;31;34668;-72
2022/12/19 03:10:00;;;;;;;61.10;24.55;;;;;;;0.32;65.66;102194.47;4486026;31;34094;-72
2022/12/19 03:12:35;;;;;;;58.30;25.23;;;;;;;0.01;66.67;102201.59;4479465;32;33999;-72
2022/12/19 03:15:03;;;;;;;58.00;25.37;;;;;;;0.22;66.21;102198.25;4481027;32;34553;-72
2022/12/19 03:17:34;;;;;;;62.83;25.70;;;;;;;0.33;65.84;102192.84;4472269;31;32721;-72
2022/12/19 03:20:11;;;;;;;62.05;25.37;;;;;;;-0.33;67.97;102193.19;4480921;31;33424;-73
2022/12/19 03:22:39;;;;;;;54.92;25.27;;;;;;;-0.10;68.00;102187.50;4482868;32;34181;-72
2022/12/19 03:25:07;;;;;;;63.45;27.10;;;;;;;0.21;67.10;102184.56;4484087;32;34229;-72
2022/12/19 03:27:36;;;;;;;66.60;26.73;;;;;;;0.08;67.92;102173.56;4484434;32;34623;-72
2022/12/19 03:30:10;;;;;;;62.78;25.92;;;;;;;0.16;67.84;102167.81;4480630;31;34434;-72
2022/12/19 03:32:39;;;;;;;68.18;26.83;;;;;;;0.42;67.65;102168.47;4484676;31;33296;-72
2022/12/19 03:35:09;;;;;;;65.15;27.08;;;;;;;0.27;67.98;102166.56;4482563;31;33698;-72
2022/12/19 03:37:40;;;;;;;65.90;26.20;;;;;;;-0.05;69.28;102166.06;4482734;32;34515;-72
2022/12/19 03:40:14;;;;;;;56.28;26.15;;;;;;;-0.33;70.95;102162.63;4485355;31;33850;-72
2022/12/19 03:45:40;;;;;;;57.13;26.42;;;;;;;-0.13;70.25;102161.66;4483151;32;32955;-72
2022/12/19 03:48:12;;;;;;;74.03;28.33;;;;;;;-0.41;71.57;102160.72;4481324;32;34796;-72
2022/12/19 03:50:52;;;;;;;69.18;28.30;;;;;;;-0.17;71.41;102167.06;4482661;32;33795;-72
2022/12/19 03:53:45;;;;;;;79.85;27.48;;;;;;;-0.42;72.64;102171.63;4473088;31;33501;-72
2022/12/19 03:56:39;;;;;;;79.93;29.90;;;;;;;0.19;70.98;102166.56;4492391;31;33817;-72
2022/12/19 03:59:09;;;;;;;76.53;30.40;;;;;;;0.30;71.94;102166.97;4496154;31;34297;-72
2022/12/19 04:01:37;;;;;;;84.37;31.55;;;;;;;0.24;72.98;102167.12;4491462;31;33394;-72
2022/12/19 04:04:05;;;;;;;80.47;30.77;;;;;;;0.26;73.75;102165.69;4490843;31;34237;-72
2022/12/19 04:06:33;;;;;;;81.20;31.70;;;;;;;-0.16;76.00;102174.91;4491922;31;33822;-72
2022/12/19 04:09:01;;;;;;;84.30;31.83;;;;;;;0.27;75.57;102161.47;4490742;31;33373;-72
2022/12/19 04:11:35;;;;;;;89.22;32.08;;;;;;;0.65;73.72;102163.62;4493239;31;33998;-72
2022/12/19 04:14:06;;;;;;;86.43;32.25;;;;;;;0.80;73.89;102163.69;4478655;31;31963;-72
2022/12/19 04:16:59;;;;;;;84.72;29.87;;;;;;;0.54;74.71;102159.78;4476502;31;33838;-72
2022/12/19 04:19:29;;;;;;;82.57;30.25;;;;;;;0.51;75.53;102163.59;4482843;32;34709;-72
2022/12/19 04:22:29;;;;;;;82.20;30.17;;;;;;;0.43;75.69;102180.50;4484222;32;34223;-72
2022/12/19 04:24:57;;;;;;;88.97;31.90;;;;;;;0.75;75.14;102175.87;4479651;31;33338;-72
2022/12/19 04:27:26;;;;;;;85.72;30.77;;;;;;;0.89;74.59;102170.81;4475595;32;33819;-72
2022/12/19 04:29:54;;;;;;;81.25;29.30;;;;;;;1.07;74.51;102176.31;4484516;32;33850;-72
2022/12/19 04:32:24;;;;;;;83.97;29.50;;;;;;;0.74;74.80;102177.50;4484461;32;33780;-72
2022/12/19 04:34:51;;;;;;;77.12;29.35;;;;;;;1.00;74.51;102168.63;4486063;32;34911;-72
2022/12/19 04:37:19;;;;;;;76.50;30.15;;;;;;;1.06;73.79;102169.37;4484554;32;34602;-72
2022/12/19 04:39:47;;;;;;;78.87;31.87;;;;;;;0.97;74.55;102175.19;4487832;31;32206;-72
2022/12/19 04:42:15;;;;;;;73.85;28.23;;;;;;;1.09;74.18;102164.66;4499973;31;33831;-72
2022/12/19 04:44:42;;;;;;;79.72;29.52;;;;;;;1.26;73.60;102159.03;4499995;31;33560;-72
2022/12/19 04:47:10;;;;;;;78.28;28.58;;;;;;;0.72;75.35;102167.84;4485704;31;33911;-72
2022/12/19 04:49:38;;;;;;;74.75;29.90;;;;;;;1.00;75.09;102168.63;4500149;31;33779;-72
2022/12/19 04:52:06;;;;;;;70.85;29.12;;;;;;;0.52;76.06;102156.16;4491650;31;33839;-72
2022/12/19 04:54:34;;;;;;;86.05;31.75;;;;;;;0.48;76.50;102156.47;4497945;31;33183;-72
2022/12/19 04:57:01;;;;;;;73.10;27.95;;;;;;;0.76;76.26;102167.50;4484924;31;32365;-72
2022/12/19 04:59:29;;;;;;;73.65;30.08;;;;;;;0.97;75.16;102170.09;4469356;32;33947;-72
2022/12/19 05:01:57;;;;;;;78.55;30.75;;;;;;;1.34;73.95;102171.06;4467442;32;34770;-72
2022/12/19 05:04:26;;;;;;;77.28;29.83;;;;;;;1.40;73.93;102170.88;4463898;32;33420;-72
2022/12/19 05:06:53;;;;;;;90.45;30.20;;;;;;;1.41;73.60;102165.03;4465568;32;34617;-72
2022/12/19 05:09:21;;;;;;;79.95;30.30;;;;;;;1.10;74.59;102171.56;4461778;32;33507;-72
2022/12/19 05:11:49;;;;;;;73.87;29.87;;;;;;;1.47;73.73;102171.78;4465732;32;34659;-72
2022/12/19 05:14:16;;;;;;;77.18;28.48;;;;;;;1.16;74.31;102177.44;4468191;32;32893;-73
2022/12/19 05:16:43;;;;;;;79.25;30.75;;;;;;;1.00;75.84;102178.84;4466236;32;34625;-73
2022/12/19 05:19:11;;;;;;;75.03;28.77;;;;;;;0.92;75.86;102177.91;4458743;32;34360;-73
2022/12/19 05:21:39;;;;;;;81.15;30.98;;;;;;;1.25;74.90;102186.16;4455794;32;33820;-72
2022/12/19 05:24:07;;;;;;;77.80;28.75;;;;;;;1.55;73.85;102178.72;4454444;32;33455;-72
2022/12/19 05:26:35;;;;;;;83.15;30.65;;;;;;;1.46;73.93;102181.81;4468109;32;34049;-72
2022/12/19 05:29:02;;;;;;;81.50;30.77;;;;;;;1.64;73.86;102181.47;4468269;32;32501;-72
2022/12/19 05:31:30;;;;;;;75.90;27.87;;;;;;;1.70;73.27;102161.72;4459377;32;34490;-72
2022/12/19 05:33:58;;;;;;;73.22;28.55;;;;;;;1.28;74.60;102175.44;4463161;32;33484;-72
2022/12/19 05:36:25;;;;;;;73.87;27.80;;;;;;;1.41;75.07;102160.84;4461129;32;34411;-72
2022/12/19 05:38:59;;;;;;;69.10;28.52;;;;;;;1.17;75.06;102158.81;4464817;32;34817;-71
2022/12/19 05:41:26;;;;;;;69.95;28.27;;;;;;;1.57;74.88;102161.03;4463589;32;33747;-72
2022/12/19 05:43:55;;;;;;;72.03;27.17;;;;;;;1.41;74.70;102162.47;4447577;32;33407;-72
2022/12/19 05:46:23;;;;;;;85.62;30.52;;;;;;;1.39;74.87;102162.28;4462787;32;33591;-72
2022/12/19 05:48:51;;;;;;;77.85;28.45;;;;;;;1.27;75.60;102171.94;4459983;32;34263;-71
2022/12/19 05:51:19;;;;;;;82.78;28.95;;;;;;;1.38;75.68;102171.59;4460590;32;33818;-72
2022/12/19 05:53:47;;;;;;;73.20;28.45;;;;;;;1.62;74.47;102154.78;4461320;32;33293;-72
2022/12/19 05:56:20;;;;;;;82.43;29.30;;;;;;;1.27;75.75;102156.63;4468899;32;33916;-72
2022/12/19 05:58:48;;;;;;;85.95;29.20;;;;;;;1.79;73.76;102160.97;4478790;31;34143;-72
2022/12/19 06:01:18;;;;;;;78.93;31.48;;;;;;;1.52;74.98;102167.22;4497922;31;33665;-72
2022/12/19 06:03:46;;;;;;;88.45;32.85;;;;;;;1.36;75.29;102155.16;4494088;31;33649;-72
2022/12/19 06:06:19;;;;;;;88.07;31.37;;;;;;;1.64;74.40;102161.03;4479191;31;33773;-72
2022/12/19 06:08:47;;;;;;;85.03;31.90;;;;;;;1.45;75.39;102162.09;4484018;32;33610;-72
2022/12/19 06:11:15;;;;;;;83.90;31.17;;;;;;;1.44;75.46;102170.50;4494454;31;34779;-72
2022/12/19 06:13:43;;;;;;;90.82;33.13;;;;;;;1.42;75.70;102175.41;4488592;31;33810;-72
2022/12/19 06:16:13;;;;;;;85.60;32.53;;;;;;;1.71;74.59;102178.87;4484852;32;34663;-72
2022/12/19 06:18:42;;;;;;;86.75;31.48;;;;;;;1.69;74.69;102185.44;4484956;32;33941;-72
2022/12/19 06:21:14;;;;;;;90.60;31.92;;;;;;;1.86;74.40;102184.88;4485178;32;32702;-72
2022/12/19 06:23:41;;;;;;;82.03;31.10;;;;;;;1.63;75.14;102173.59;4483944;32;32568;-72
2022/12/19 06:26:11;;;;;;;82.62;31.85;;;;;;;1.59;75.15;102177.44;4486627;31;33554;-72
2022/12/19 06:28:49;;;;;;;84.37;32.60;;;;;;;1.57;75.42;102184.91;4484674;31;33663;-72
2022/12/19 06:31:19;;;;;;;87.20;32.95;;;;;;;1.54;75.72;102176.88;4500286;31;33906;-72
2022/12/19 06:33:46;;;;;;;93.93;31.42;;;;;;;1.88;75.26;102167.19;4492828;31;33499;-72
2022/12/19 06:36:21;;;;;;;98.12;34.97;;;;;;;1.54;75.65;102183.63;4488815;31;34608;-72
2022/12/19 06:38:49;;;;;;;82.15;29.87;;;;;;;1.42;76.69;102182.19;4491294;31;33829;-72
2022/12/19 06:44:10;;;;;;;100.80;33.40;;;;;;;1.49;77.43;102184.75;4478882;31;33349;-72
2022/12/19 06:46:40;;;;;;;100.62;35.00;;;;;;;1.26;77.69;102189.66;4492343;31;33829;-72
2022/12/19 06:49:09;;;;;;;95.35;32.20;;;;;;;1.46;77.21;102186.91;4485481;31;32006;-72
2022/12/19 06:51:36;;;;;;;78.70;30.48;;;;;;;1.52;76.94;102175.78;4500084;31;33919;-72
2022/12/19 06:54:04;;;;;;;91.10;34.38;;;;;;;1.51;76.49;102178.19;4478312;31;33494;-71
2022/12/19 06:56:35;;;;;;;103.38;35.65;;;;;;;0.86;79.35;102170.44;4499628;31;33431;-72
2022/12/19 06:59:04;;;;;;;106.55;33.67;;;;;;;1.25;78.88;102173.41;4496385;31;33934;-72
2022/12/19 07:01:43;;;;;;;103.57;33.05;;;;;;;0.87;79.86;102182.47;4496703;31;33836;-72
2022/12/19 07:04:15;;;;;;;96.12;34.85;;;;;;;1.15;79.55;102185.81;4499367;31;34319;-72
2022/12/19 07:06:43;;;;;;;86.00;33.90;;;;;;;0.90;79.71;102187.94;4495068;31;33558;-72
2022/12/19 07:09:16;;;;;;;93.68;34.10;;;;;;;0.79;80.50;102180.62;4486141;31;33769;-72
2022/12/19 07:11:44;;;;;;;105.45;34.92;;;;;;;1.17;79.14;102180.16;4488051;31;32275;-72
2022/12/19 07:14:11;;;;;;;99.70;33.45;;;;;;;1.07;79.24;102192.53;4494052;31;33560;-72
2022/12/19 07:16:39;;;;;;;85.32;33.60;;;;;;;1.26;78.64;102195.66;4484565;31;33893;-72
2022/12/19 07:19:08;;;;;;;101.68;34.85;;;;;;;1.08;79.67;102190.88;4487434;31;34478;-72
2022/12/19 07:21:37;;;;;;;98.43;35.13;;;;;;;0.94;80.26;102192.69;4488118;31;34498;-72
2022/12/19 07:24:06;;;;;;;106.72;34.55;;;;;;;1.34;79.70;102191.47;4471075;32;33362;-72
2022/12/19 07:26:34;;;;;;;87.90;32.10;;;;;;;1.70;77.83;102194.00;4486289;31;34510;-72
2022/12/19 07:29:02;;;;;;;89.05;33.38;;;;;;;1.07;79.81;102184.88;4486470;31;33944;-72
2022/12/19 07:31:30;;;;;;;91.85;34.22;;;;;;;1.40;78.92;102193.84;4487723;31;32438;-72
2022/12/19 07:33:58;;;;;;;92.18;34.30;;;;;;;1.41;79.26;102185.44;4487915;31;34318;-72
2022/12/19 07:36:25;;;;;;;98.00;33.13;;;;;;;1.40;79.21;102183.66;4485468;31;33974;-72
2022/12/19 07:38:53;;;;;;;90.93;33.03;;;;;;;1.37;79.82;102190.22;4486327;31;34418;-72
2022/12/19 07:41:21;;;;;;;89.22;33.22;;;;;;;1.40;79.31;102183.66;4483779;31;33970;-72
2022/12/19 07:43:48;;;;;;;87.10;31.92;;;;;;;1.65;78.15;102183.25;4484983;31;33259;-72
2022/12/19 07:46:16;;;;;;;98.03;33.78;;;;;;;0.96;80.28;102188.69;4484611;31;34193;-72
2022/12/19 07:48:44;;;;;;;88.30;32.17;;;;;;;1.24;80.45;102180.91;4486211;31;34420;-72
2022/12/19 07:51:12;;;;;;;97.72;33.80;;;;;;;1.29;80.70;102185.81;4480618;31;33923;-72
2022/12/19 07:53:40;;;;;;;84.53;30.58;;;;;;;1.28;80.93;102186.56;4483383;32;32195;-72
2022/12/19 07:56:07;;;;;;;77.47;30.05;;;;;;;1.46;79.53;102192.03;4491913;31;34590;-72
2022/12/19 07:58:35;;;;;;;72.07;27.10;;;;;;;1.69;78.56;102200.78;4483492;32;33836;-72
2022/12/19 08:01:03;;;;;;;79.30;29.70;;;;;;;1.71;77.57;102198.41;4486133;31;34582;-72
2022/12/19 08:03:31;;;;;;;76.90;30.35;;;;;;;1.71;77.89;102204.41;4488674;31;33624;-72
2022/12/19 08:06:04;;;;;;;74.37;26.92;;;;;;;1.24;78.87;102209.00;4488546;31;34473;-72
2022/12/19 08:08:32;;;;;;;73.18;27.05;;;;;;;0.96;80.01;102216.75;4482355;31;33674;-72
2022/12/19 08:11:16;;;;;;;63.03;24.50;;;;;;;1.35;78.52;102217.22;4481444;32;33877;-72
2022/12/19 08:13:44;;;;;;;63.72;26.30;;;;;;;1.49;76.71;102223.06;4482009;31;33674;-72
2022/12/19 08:16:13;;;;;;;59.58;23.60;;;;;;;1.50;76.68;102222.31;4487081;31;33445;-72
2022/12/19 08:18:41;;;;;;;51.25;21.73;;;;;;;1.48;74.95;102219.56;4491097;31;33385;-72
2022/12/19 08:21:10;;;;;;;45.28;18.60;;;;;;;0.86;75.35;102231.69;4490432;31;34578;-72
2022/12/19 08:23:37;;;;;;;44.25;16.42;;;;;;;1.17;72.14;102235.41;4484380;31;33319;-72
2022/12/19 08:26:07;;;;;;;49.10;16.30;;;;;;;1.68;69.85;102219.41;4491594;31;33542;-71
2022/12/19 08:28:35;;;;;;;44.53;17.35;;;;;;;1.84;68.48;102213.56;4479016;31;33808;-72
2022/12/19 08:31:07;;;;;;;47.20;19.08;;;;;;;1.53;69.84;102207.38;4485056;31;33943;-72
2022/12/19 08:33:36;;;;;;;36.50;17.08;;;;;;;1.79;69.27;102207.88;4493276;31;34292;-72
2022/12/19 08:36:05;;;;;;;38.10;16.73;;;;;;;1.56;70.25;102212.81;4489381;31;34110;-71
2022/12/19 08:38:33;;;;;;;34.88;15.38;;;;;;;1.11;72.19;102206.59;4493606;31;33593;-72
2022/12/19 08:41:01;;;;;;;41.17;16.80;;;;;;;1.63;68.78;102194.94;4495865;31;33695;-72
2022/12/19 08:43:29;;;;;;;44.78;17.95;;;;;;;1.00;72.24;102194.16;4497204;31;33531;-71
2022/12/19 08:45:57;;;;;;;45.47;19.50;;;;;;;1.19;71.28;102193.09;4494408;31;34095;-72
2022/12/19 08:48:25;;;;;;;43.38;18.98;;;;;;;1.74;69.22;102184.34;4480741;31;31829;-72
2022/12/19 08:50:55;;;;;;;58.17;21.87;;;;;;;1.62;71.22;102190.56;4483554;31;32796;-72
2022/12/19 08:53:24;;;;;;;55.67;21.83;;;;;;;1.61;70.43;102191.31;4482740;31;33291;-72
2022/12/19 08:55:58;;;;;;;46.60;19.05;;;;;;;1.61;70.80;102190.41;4485896;31;32962;-72
2022/12/19 08:58:27;;;;;;;46.65;20.12;;;;;;;1.93;69.75;102196.72;4484813;31;33970;-72
2022/12/19 09:00:58;;;;;;;52.20;20.75;;;;;;;1.89;69.81;102195.47;4485335;31;34262;-72
2022/12/19 09:03:32;;;;;;;44.08;19.35;;;;;;;2.20;68.03;102193.03;4483818;31;33210;-72
2022/12/19 09:06:19;;;;;;;51.65;19.83;;;;;;;2.30;67.95;102201.06;4489674;31;33428;-72
2022/12/19 09:08:48;;;;;;;51.33;20.12;;;;;;;2.05;69.07;102187.97;4482484;31;33748;-72
2022/12/19 09:11:17;;;;;;;49.10;19.60;;;;;;;1.96;69.48;102181.75;4489401;31;34182;-72
2022/12/19 09:13:46;;;;;;;51.95;18.95;;;;;;;1.58;71.23;102173.03;4485715;31;35676;-73
2022/12/19 09:16:17;;;;;;;44.55;19.60;;;;;;;1.51;72.09;102183.28;4480540;31;32288;-72
2022/12/19 09:18:49;;;;;;;51.60;19.35;;;;;;;1.55;71.20;102176.16;4499450;31;33140;-72
2022/12/19 09:21:18;;;;;;;47.30;18.42;;;;;;;1.58;70.77;102188.38;4480496;31;34169;-71
2022/12/19 09:23:50;;;;;;;45.33;17.60;;;;;;;1.79;70.67;102202.78;4477259;31;33558;-71
2022/12/19 09:26:19;;;;;;;42.45;18.00;;;;;;;1.93;69.24;102201.84;4494312;31;34071;-72
2022/12/19 09:28:47;;;;;;;48.87;18.12;;;;;;;1.67;71.27;102202.25;4495116;31;34422;-71
2022/12/19 09:31:18;;;;;;;44.65;17.65;;;;;;;1.51;70.40;102211.38;4481587;31;34104;-72
2022/12/19 09:33:47;;;;;;;41.22;17.80;;;;;;;1.63;70.27;102205.16;4487150;31;33022;-72
2022/12/19 09:36:17;;;;;;;44.60;17.80;;;;;;;1.74;68.58;102197.13;4494936;31;34621;-71
2022/12/19 09:38:44;;;;;;;37.75;17.00;;;;;;;2.02;67.62;102187.59;4495020;31;34581;-71
2022/12/19 09:41:12;;;;;;;39.60;16.02;;;;;;;1.79;68.47;102181.44;4487683;31;33462;-71
2022/12/19 09:44:07;;;;;;;39.75;17.27;;;;;;;1.93;68.89;102173.72;4480166;31;32191;-74
2022/12/19 09:46:54;;;;;;;41.78;17.77;;;;;;;2.02;68.29;102169.69;4494650;31;34618;-71
2022/12/19 09:49:44;;;;;;;45.20;20.05;;;;;;;2.24;68.24;102170.56;4496364;31;34479;-71
2022/12/19 09:52:15;;;;;;;38.53;16.60;;;;;;;2.21;67.50;102175.31;4490305;31;35035;-71
2022/12/19 09:54:48;;;;;;;38.30;15.50;;;;;;;1.83;67.99;102163.16;4494428;31;32460;-71
2022/12/19 09:57:28;;;;;;;39.40;16.75;;;;;;;1.86;69.16;102155.87;4483892;32;34122;-72
2022/12/19 09:59:59;;;;;;;39.95;17.50;;;;;;;2.23;67.43;102155.03;4499140;31;33837;-71
2022/12/19 10:03:02;;;;;;;40.90;16.40;;;;;;;2.20;67.39;102154.66;4497901;31;34350;-71
2022/12/19 10:05:38;;;;;;;42.40;16.73;;;;;;;2.03;69.09;102151.09;4498184;31;31578;-72
2022/12/19 10:08:40;;;;;;;47.45;20.10;;;;;;;2.10;68.22;102140.81;4482406;31;34387;-71
2022/12/19 10:11:47;;;;;;;53.08;19.75;;;;;;;2.04;67.53;102145.22;4487005;31;33969;-72
2022/12/19 10:15:05;;;;;;;46.00;17.17;;;;;;;1.88;69.06;102145.09;4498138;31;32630;-72
2022/12/19 10:17:50;;;;;;;40.70;17.25;;;;;;;1.49;71.33;102133.66;4494066;31;33901;-72
2022/12/19 10:20:24;;;;;;;39.33;17.23;;;;;;;2.16;68.01;102136.44;4482481;31;33596;-72
2022/12/19 10:23:01;;;;;;;38.65;17.48;;;;;;;2.31;66.54;102141.47;4483165;31;33852;-72
2022/12/19 10:25:51;;;;;;;42.20;17.30;;;;;;;2.18;67.66;102146.81;4481577;31;34165;-71
2022/12/19 10:28:56;;;;;;;38.85;17.27;;;;;;;2.49;66.54;102143.59;4499179;31;34389;-71
2022/12/19 10:31:35;;;;;;;40.45;16.58;;;;;;;2.34;66.76;102126.50;4482726;31;32401;-72
2022/12/19 10:34:23;;;;;;;40.67;16.75;;;;;;;1.92;68.91;102128.47;4481562;31;34037;-72
2022/12/19 10:36:55;;;;;;;40.97;15.43;;;;;;;1.90;68.52;102135.03;4486694;31;33236;-72
2022/12/19 10:40:08;;;;;;;38.83;16.33;;;;;;;1.79;67.85;102112.44;4487552;31;33631;-72
2022/12/19 10:42:49;;;;;;;41.47;17.55;;;;;;;1.66;68.61;102116.12;4489921;31;34484;-71
2022/12/19 10:45:20;;;;;;;39.00;16.92;;;;;;;1.83;67.69;102123.19;4494545;31;33988;-72
2022/12/19 10:47:55;;;;;;;38.35;15.05;;;;;;;1.86;67.50;102122.66;4494799;31;33484;-71
2022/12/19 10:50:29;;;;;;;35.78;15.93;;;;;;;2.29;66.40;102117.38;4480654;31;33512;-72
2022/12/19 10:53:02;;;;;;;42.70;17.17;;;;;;;2.48;65.84;102105.94;4491427;31;33889;-71
2022/12/19 10:55:36;;;;;;;40.92;16.33;;;;;;;2.53;65.05;102109.94;4494493;31;34211;-71
2022/12/19 10:58:11;;;;;;;37.47;15.95;;;;;;;2.63;65.40;102105.88;4490215;31;33808;-72
2022/12/19 11:01:00;;;;;;;41.97;16.87;;;;;;;2.65;65.33;102097.63;4492242;31;33682;-72
2022/12/19 11:03:27;;;;;;;43.72;19.15;;;;;;;2.56;66.76;102101.69;4478443;31;33894;-72
2022/12/19 11:05:56;;;;;;;41.33;18.05;;;;;;;2.65;65.95;102084.84;4477702;32;34662;-72
2022/12/19 11:08:30;;;;;;;43.03;17.58;;;;;;;2.77;65.11;102089.53;4480606;31;32424;-72
2022/12/19 11:11:04;;;;;;;41.15;18.48;;;;;;;2.73;66.06;102081.47;4483154;31;31863;-73
2022/12/19 11:13:52;;;;;;;43.30;17.77;;;;;;;2.83;64.99;102085.97;4484880;31;34229;-73
2022/12/19 11:16:40;;;;;;;37.63;17.12;;;;;;;2.94;64.37;102085.53;4482790;31;33873;-73
2022/12/19 11:19:38;;;;;;;43.05;16.25;;;;;;;2.75;65.86;102082.56;4494127;31;34053;-73
2022/12/19 11:22:30;;;;;;;40.03;17.92;;;;;;;3.03;63.41;102089.84;4495707;31;33255;-73
2022/12/19 11:25:20;;;;;;;50.88;21.35;;;;;;;3.02;65.12;102082.94;4487576;31;33797;-74
2022/12/19 11:28:21;;;;;;;50.83;20.98;;;;;;;3.17;64.96;102084.63;4478369;31;33980;-73
2022/12/19 11:31:15;;;;;;;43.97;16.80;;;;;;;3.14;64.77;102079.16;4487727;31;33654;-73
2022/12/19 11:34:05;;;;;;;40.80;16.20;;;;;;;3.04;68.22;102066.09;4479772;31;33228;-73
2022/12/19 11:37:14;;;;;;;40.10;17.33;;;;;;;2.82;67.18;102068.81;4465452;32;34424;-73
2022/12/19 11:39:49;;;;;;;39.80;16.60;;;;;;;2.99;67.74;102059.53;4473151;31;34292;-73
2022/12/19 11:42:24;;;;;;;39.53;16.73;;;;;;;3.11;66.37;102068.56;4482576;31;33705;-73
2022/12/19 11:45:00;;;;;;;41.63;17.23;;;;;;;3.45;65.84;102057.81;4488802;31;33518;-73
2022/12/19 11:47:44;;;;;;;41.67;16.70;;;;;;;3.42;63.64;102041.19;4477764;31;33855;-74
2022/12/19 11:50:17;;;;;;;37.55;16.98;;;;;;;3.38;63.06;102049.28;4480228;31;34705;-73
2022/12/19 11:53:08;;;;;;;36.28;16.92;;;;;;;3.23;66.65;102034.09;4486603;31;33792;-73